Empire, Nevada
Current Conditions -  °F | °C
As of 11:53 PM on Tuesday 21 Oct 2014 (Local Time) from KLOL Reporting Station
Clear Clear  
Wind Chill: 40°   Ceiling: Unl
Heat Index: 40°   Visibility: 10mi
Dew Point: 18°   Wind: 0mph
Humidity: 41%   Direction: NA
Pressure: 30.09"   Gusts: NA
Location:  40.58°N, 119.34°W
Report Text: KLOL 220653Z AUTO 00000KT 10SM CLR 04/M08 A3009 RMK AO2 SLP185 T00441078
Loading
Personal Weather Stations






























Interactive Weather Map
Tropical Storm Tracking
New forecast layout! Learn more

10-Day Weather Forecast

Advertisements
Track Severe Weather on mobile